Time;durP1;ratioP1;P1;durP2;ratioP2;P2;SDS_P1;SDS_P2;PMS_P1;PMS_P2;Temp;Humidity;BMP_temperature;BMP_pressure;BME280_temperature;BME280_humidity;BME280_pressure;Samples;Min_cycle;Max_cycle;Signal;HPM_P1;HPM_P2
2022/12/23 00:01:06;;;;;;;2.97;1.70;;;8.50;99.90;;;;;;5074175;28;20224;-84
2022/12/23 00:03:33;;;;;;;6.07;2.13;;;8.50;99.90;;;;;;5074789;28;20646;-85
2022/12/23 00:05:59;;;;;;;4.07;2.03;;;8.50;99.90;;;;;;5075467;28;20173;-85
2022/12/23 00:08:26;;;;;;;4.30;2.00;;;8.50;99.90;;;;;;5073979;28;20271;-85
2022/12/23 00:10:55;;;;;;;2.80;2.00;;;8.50;99.90;;;;;;5075322;28;20228;-85
2022/12/23 00:16:10;;;;;;;3.93;2.10;;;8.50;99.90;;;;;;5083971;28;20189;-85
2022/12/23 00:18:37;;;;;;;6.77;4.00;;;8.50;99.90;;;;;;5094327;28;20294;-85
2022/12/23 00:21:05;;;;;;;7.53;4.90;;;8.50;99.90;;;;;;5095425;28;20207;-84
2022/12/23 00:23:36;;;;;;;10.13;6.50;;;8.50;99.90;;;;;;5094901;28;20168;-85
2022/12/23 00:26:02;;;;;;;6.17;3.77;;;8.50;99.90;;;;;;5094925;28;20175;-84
2022/12/23 00:28:28;;;;;;;5.27;2.90;;;8.50;99.90;;;;;;5093957;28;20189;-85
2022/12/23 00:31:02;;;;;;;5.40;2.00;;;8.50;99.90;;;;;;5095138;28;20260;-85
2022/12/23 00:33:30;;;;;;;2.47;1.77;;;8.50;99.90;;;;;;5094276;28;20185;-85
2022/12/23 00:35:57;;;;;;;3.43;1.90;;;8.40;99.90;;;;;;5094764;28;20171;-85
2022/12/23 00:43:59;;;;;;;3.93;1.80;;;8.40;99.90;;;;;;5094662;28;20183;-84
2022/12/23 00:46:25;;;;;;;2.83;1.70;;;8.40;99.90;;;;;;5094928;28;20171;-85
2022/12/23 00:51:35;;;;;;;2.70;1.60;;;8.40;99.90;;;;;;5094981;28;20646;-85
2022/12/23 00:54:01;;;;;;;3.50;1.83;;;8.40;99.90;;;;;;5093130;28;20179;-84
2022/12/23 00:56:26;;;;;;;2.37;1.70;;;8.30;99.90;;;;;;5093769;28;20174;-84
2022/12/23 00:58:52;;;;;;;4.63;1.80;;;8.30;99.90;;;;;;5093531;28;20194;-84
2022/12/23 01:06:46;;;;;;;3.40;1.60;;;8.30;99.90;;;;;;5094776;28;20648;-84
2022/12/23 01:09:11;;;;;;;2.07;1.40;;;8.30;99.90;;;;;;5093009;28;20172;-84
2022/12/23 01:11:37;;;;;;;1.40;1.30;;;8.30;99.90;;;;;;5093512;28;20186;-85
2022/12/23 01:14:03;;;;;;;3.10;1.43;;;8.30;99.90;;;;;;5092687;28;20176;-84
2022/12/23 01:16:28;;;;;;;3.17;1.60;;;8.30;99.90;;;;;;5094489;28;20649;-85
2022/12/23 01:18:54;;;;;;;3.30;1.60;;;8.30;99.90;;;;;;5094246;28;20198;-84
2022/12/23 01:21:20;;;;;;;3.37;1.37;;;8.30;99.90;;;;;;5111438;22;20218;-82
2022/12/23 01:23:45;;;;;;;2.40;1.60;;;8.30;99.90;;;;;;5069454;28;20171;-83
2022/12/23 01:26:11;;;;;;;1.77;1.43;;;8.30;99.90;;;;;;5061727;28;20238;-83
2022/12/23 01:28:36;;;;;;;2.63;1.50;;;8.30;99.90;;;;;;5067775;28;20170;-83
2022/12/23 01:31:04;;;;;;;3.90;1.60;;;8.30;99.90;;;;;;5073567;28;20200;-83
2022/12/23 01:33:32;;;;;;;2.43;1.50;;;8.30;99.90;;;;;;5071394;28;20266;-83
2022/12/23 01:36:02;;;;;;;1.97;1.30;;;8.30;99.90;;;;;;5072156;28;20186;-83
2022/12/23 01:38:28;;;;;;;2.13;1.70;;;8.30;99.90;;;;;;5073187;28;20285;-84
2022/12/23 01:40:54;;;;;;;2.20;1.30;;;8.30;99.90;;;;;;5073428;28;20207;-83
2022/12/23 01:43:21;;;;;;;1.67;1.40;;;8.30;99.90;;;;;;5068814;28;20175;-83
2022/12/23 01:45:47;;;;;;;4.13;1.40;;;8.30;99.90;;;;;;5053776;28;20200;-83
2022/12/23 01:48:23;;;;;;;2.23;1.50;;;8.30;99.90;;;;;;5053584;28;20203;-83
2022/12/23 01:51:00;;;;;;;2.33;1.30;;;8.30;99.90;;;;;;5052256;28;20616;-83
2022/12/23 01:53:36;;;;;;;1.43;1.30;;;8.30;99.90;;;;;;5051799;28;20176;-83
2022/12/23 01:56:08;;;;;;;1.60;1.50;;;8.20;99.90;;;;;;5053981;28;20266;-83
2022/12/23 01:58:39;;;;;;;3.57;1.70;;;8.20;99.90;;;;;;5052452;28;20284;-83
2022/12/23 02:03:56;;;;;;;3.73;1.60;;;8.20;99.90;;;;;;5033097;28;20223;-83
2022/12/23 02:09:22;;;;;;;2.80;1.80;;;8.30;99.90;;;;;;5033885;28;20685;-82
2022/12/23 02:12:25;;;;;;;3.00;1.40;;;8.30;99.90;;;;;;5032117;28;20184;-82
2022/12/23 02:18:07;;;;;;;3.77;1.77;;;8.30;99.90;;;;;;5033557;28;20323;-82
2022/12/23 02:20:47;;;;;;;3.07;1.80;;;8.30;99.90;;;;;;5032217;28;20236;-82
2022/12/23 02:23:34;;;;;;;2.40;1.70;;;8.30;99.90;;;;;;5031512;28;20603;-82
2022/12/23 02:26:35;;;;;;;2.83;1.93;;;8.30;99.90;;;;;;5032530;28;20172;-83
2022/12/23 02:29:00;;;;;;;2.90;1.77;;;8.30;99.90;;;;;;5032143;28;20222;-82
2022/12/23 02:31:56;;;;;;;2.97;1.90;;;8.30;99.90;;;;;;5033091;28;20189;-83
2022/12/23 02:34:40;;;;;;;3.50;2.20;;;8.30;99.90;;;;;;5032340;28;20174;-81
2022/12/23 02:37:06;;;;;;;4.40;2.30;;;8.20;99.90;;;;;;5044395;28;20175;-83
2022/12/23 02:39:41;;;;;;;2.57;2.13;;;8.30;99.90;;;;;;5051803;28;20168;-83
2022/12/23 02:42:37;;;;;;;3.63;2.40;;;8.30;99.90;;;;;;5053345;28;20299;-83
2022/12/23 02:45:19;;;;;;;2.67;2.27;;;8.20;99.90;;;;;;5052172;28;20247;-82
2022/12/23 02:47:55;;;;;;;4.60;2.50;;;8.30;99.90;;;;;;5051888;28;20180;-83
2022/12/23 02:50:30;;;;;;;3.50;2.40;;;8.30;99.90;;;;;;5053525;28;20192;-83
2022/12/23 02:53:00;;;;;;;4.77;2.50;;;8.30;99.90;;;;;;5052077;28;20169;-83
2022/12/23 02:55:31;;;;;;;2.70;2.40;;;8.30;99.90;;;;;;5053349;28;20169;-82
2022/12/23 02:58:01;;;;;;;3.07;2.40;;;8.30;99.90;;;;;;5053493;28;20220;-83
2022/12/23 03:00:27;;;;;;;3.10;2.40;;;8.20;99.90;;;;;;5053377;28;20201;-83
2022/12/23 03:02:53;;;;;;;3.83;2.80;;;8.20;99.90;;;;;;5051215;28;20203;-82
2022/12/23 03:05:52;;;;;;;4.20;2.30;;;8.20;99.90;;;;;;5051499;28;20207;-82
2022/12/23 03:08:33;;;;;;;2.60;2.40;;;8.30;99.90;;;;;;5043133;28;20181;-82
2022/12/23 03:11:09;;;;;;;2.93;2.43;;;8.30;99.90;;;;;;5051794;28;20335;-82
2022/12/23 03:13:58;;;;;;;3.10;2.40;;;8.20;99.90;;;;;;5051385;28;20268;-83
2022/12/23 03:16:45;;;;;;;3.80;2.53;;;8.20;99.90;;;;;;5050750;28;20191;-83
2022/12/23 03:19:25;;;;;;;5.33;2.50;;;8.20;99.90;;;;;;5051536;28;20198;-83
2022/12/23 03:22:34;;;;;;;2.77;2.47;;;8.20;99.90;;;;;;5056616;28;20160;-83
2022/12/23 03:25:05;;;;;;;4.13;2.40;;;8.10;99.90;;;;;;5056407;28;20173;-82
2022/12/23 03:27:52;;;;;;;2.90;2.40;;;8.20;99.90;;;;;;5055585;28;20182;-82
2022/12/23 03:30:21;;;;;;;4.70;2.50;;;8.20;99.90;;;;;;5056693;28;20190;-83
2022/12/23 03:32:54;;;;;;;3.57;2.40;;;8.20;99.90;;;;;;5054891;28;20670;-83
2022/12/23 03:35:26;;;;;;;3.23;2.17;;;8.20;99.90;;;;;;5056624;28;20174;-82
2022/12/23 03:37:53;;;;;;;3.20;2.10;;;8.20;99.90;;;;;;5056435;28;20598;-83
2022/12/23 03:40:25;;;;;;;3.00;2.10;;;8.20;99.90;;;;;;5056286;28;20246;-82
2022/12/23 03:42:56;;;;;;;2.07;1.87;;;8.20;99.90;;;;;;5055803;28;20165;-83
2022/12/23 03:45:32;;;;;;;3.63;1.90;;;8.20;99.90;;;;;;5056135;28;20175;-83
2022/12/23 03:48:14;;;;;;;2.60;1.70;;;8.20;99.90;;;;;;5050254;28;20713;-83
2022/12/23 03:50:41;;;;;;;2.37;1.70;;;8.20;99.90;;;;;;5036064;28;20196;-83
2022/12/23 03:53:33;;;;;;;2.17;1.67;;;8.20;99.90;;;;;;5034215;28;20630;-82
2022/12/23 03:56:04;;;;;;;1.60;1.50;;;8.20;99.90;;;;;;5033785;28;20202;-83
2022/12/23 03:58:34;;;;;;;2.00;1.60;;;8.20;99.90;;;;;;5036392;28;20200;-82
2022/12/23 04:01:17;;;;;;;2.20;1.60;;;8.20;99.90;;;;;;5034700;28;20201;-83
2022/12/23 04:04:12;;;;;;;1.97;1.30;;;8.20;99.90;;;;;;5035620;28;20163;-83
2022/12/23 04:07:02;;;;;;;1.80;1.33;;;8.20;99.90;;;;;;5034164;28;20180;-83
2022/12/23 04:09:28;;;;;;;1.30;1.20;;;8.20;99.90;;;;;;5035820;28;20174;-82
2022/12/23 04:11:55;;;;;;;1.53;1.20;;;8.20;99.90;;;;;;5035848;28;20202;-83
2022/12/23 04:14:21;;;;;;;1.30;1.20;;;8.20;99.90;;;;;;5050576;28;20715;-82
2022/12/23 04:16:49;;;;;;;1.40;1.30;;;8.20;99.90;;;;;;5034217;28;20174;-83
2022/12/23 04:19:15;;;;;;;1.57;1.30;;;8.20;99.90;;;;;;5034408;28;20667;-83
2022/12/23 04:21:40;;;;;;;1.67;1.40;;;8.20;99.90;;;;;;5035718;28;20258;-82
2022/12/23 04:24:06;;;;;;;1.70;1.27;;;8.30;99.90;;;;;;5035065;28;20171;-83
2022/12/23 04:26:32;;;;;;;1.53;1.40;;;8.20;99.90;;;;;;5034273;28;20207;-83
2022/12/23 04:28:57;;;;;;;1.40;1.30;;;8.20;99.90;;;;;;5035546;28;20196;-83
2022/12/23 04:31:23;;;;;;;1.40;1.30;;;8.20;99.90;;;;;;5035735;28;20260;-83
2022/12/23 04:33:48;;;;;;;1.50;1.40;;;8.20;99.90;;;;;;5035352;28;20189;-83
2022/12/23 04:36:14;;;;;;;1.30;1.20;;;8.20;99.90;;;;;;5033754;28;20231;-83
2022/12/23 04:38:39;;;;;;;1.80;1.20;;;8.20;99.90;;;;;;5034267;28;20239;-82
2022/12/23 04:41:05;;;;;;;1.60;1.40;;;8.20;99.90;;;;;;5034955;28;20199;-83
2022/12/23 04:43:30;;;;;;;1.70;1.60;;;8.20;99.90;;;;;;5033259;28;20186;-82
2022/12/23 04:45:56;;;;;;;2.03;1.30;;;8.20;99.90;;;;;;5035367;28;20185;-83
2022/12/23 04:48:21;;;;;;;1.90;1.50;;;8.20;99.90;;;;;;5035244;28;20174;-83
2022/12/23 04:50:47;;;;;;;1.60;1.50;;;8.10;99.90;;;;;;5041724;28;20638;-82
2022/12/23 04:53:13;;;;;;;1.70;1.57;;;8.10;99.90;;;;;;5058177;28;20185;-83
2022/12/23 04:55:38;;;;;;;1.40;1.30;;;8.10;99.90;;;;;;5074900;28;20181;-83
2022/12/23 04:58:04;;;;;;;1.50;1.40;;;8.10;99.90;;;;;;5073532;28;20625;-83
2022/12/23 05:00:29;;;;;;;1.43;1.30;;;8.10;99.90;;;;;;5074660;28;20194;-83
2022/12/23 05:02:55;;;;;;;1.60;1.50;;;8.10;99.90;;;;;;5072559;28;20267;-83
2022/12/23 05:05:20;;;;;;;2.17;1.50;;;8.10;99.90;;;;;;5074543;28;20562;-83
2022/12/23 05:07:49;;;;;;;1.90;1.50;;;8.10;99.90;;;;;;5074710;28;20182;-83
2022/12/23 05:10:15;;;;;;;1.70;1.50;;;8.10;99.90;;;;;;5074491;28;20362;-83
2022/12/23 05:12:40;;;;;;;2.13;1.40;;;8.10;99.90;;;;;;5073778;28;20550;-83
2022/12/23 05:15:07;;;;;;;1.57;1.37;;;8.10;99.90;;;;;;5072959;28;20175;-82
2022/12/23 05:17:33;;;;;;;1.67;1.30;;;8.10;99.90;;;;;;5072769;28;20202;-83
2022/12/23 05:19:58;;;;;;;1.73;1.60;;;8.10;99.90;;;;;;5072746;28;20221;-82
2022/12/23 05:22:24;;;;;;;1.80;1.67;;;8.20;99.90;;;;;;5073733;28;20163;-83
2022/12/23 05:24:49;;;;;;;1.80;1.70;;;8.20;99.90;;;;;;5070067;28;20214;-83
2022/12/23 05:27:15;;;;;;;2.10;1.90;;;8.20;99.90;;;;;;5034593;28;20188;-81
2022/12/23 05:29:40;;;;;;;2.23;2.03;;;8.20;99.90;;;;;;5034172;28;20193;-85
2022/12/23 05:32:06;;;;;;;4.20;2.33;;;8.20;99.90;;;;;;5033888;28;20196;-83
2022/12/23 05:34:31;;;;;;;2.77;2.00;;;8.20;99.90;;;;;;5032500;28;20174;-82
2022/12/23 05:36:57;;;;;;;2.20;1.90;;;8.20;99.90;;;;;;5032615;28;20652;-80
2022/12/23 05:39:22;;;;;;;2.40;2.20;;;8.20;99.90;;;;;;5034408;28;20225;-81
2022/12/23 05:41:48;;;;;;;2.50;2.10;;;8.20;99.90;;;;;;5032217;28;20192;-82
2022/12/23 05:44:14;;;;;;;2.20;2.00;;;8.20;99.90;;;;;;5031612;28;20177;-82
2022/12/23 05:46:39;;;;;;;3.37;2.10;;;8.10;99.90;;;;;;5033729;28;20206;-79
2022/12/23 05:49:05;;;;;;;3.03;2.20;;;8.10;99.90;;;;;;5032922;28;20192;-82
2022/12/23 05:51:30;;;;;;;2.30;2.10;;;8.10;99.90;;;;;;5032023;28;20201;-82
2022/12/23 05:53:56;;;;;;;2.20;2.00;;;8.10;99.90;;;;;;5033048;28;20177;-82
2022/12/23 05:56:21;;;;;;;3.43;2.27;;;8.10;99.90;;;;;;5033612;28;20185;-82
2022/12/23 05:58:47;;;;;;;2.97;2.33;;;8.10;99.90;;;;;;5032207;28;20208;-81
2022/12/23 06:01:13;;;;;;;2.97;2.60;;;8.10;99.90;;;;;;5033710;28;20197;-82
2022/12/23 06:03:38;;;;;;;3.13;2.60;;;8.10;99.90;;;;;;5032696;28;20185;-82
2022/12/23 06:06:04;;;;;;;3.13;2.73;;;8.10;99.90;;;;;;5031962;28;20181;-82
2022/12/23 06:08:30;;;;;;;3.30;2.60;;;8.00;99.90;;;;;;5033485;28;20189;-83
2022/12/23 06:10:55;;;;;;;3.50;2.83;;;8.00;99.90;;;;;;5031639;28;20307;-84
2022/12/23 06:13:21;;;;;;;3.57;2.93;;;8.00;99.90;;;;;;5031385;28;20187;-83
2022/12/23 06:15:46;;;;;;;4.17;3.00;;;7.90;99.90;;;;;;5031963;28;20283;-84
2022/12/23 06:18:12;;;;;;;3.90;3.07;;;7.90;99.90;;;;;;5033051;28;20207;-83
2022/12/23 06:20:37;;;;;;;4.37;3.20;;;7.90;99.90;;;;;;5036901;28;20206;-83
2022/12/23 06:23:03;;;;;;;4.03;3.40;;;7.90;99.90;;;;;;5051017;28;20909;-84
2022/12/23 06:25:28;;;;;;;5.37;2.50;;;7.90;99.90;;;;;;5051599;28;20188;-82
2022/12/23 06:27:54;;;;;;;3.33;2.70;;;8.00;99.90;;;;;;5051552;28;20178;-81
2022/12/23 06:30:20;;;;;;;3.13;2.10;;;8.10;99.90;;;;;;5051966;28;20338;-81
2022/12/23 06:32:45;;;;;;;3.77;2.30;;;8.10;99.90;;;;;;5051415;28;20192;-81
2022/12/23 06:35:11;;;;;;;2.37;2.13;;;8.20;99.90;;;;;;5051696;28;20235;-79
2022/12/23 06:37:36;;;;;;;3.23;2.30;;;8.10;99.90;;;;;;5052266;28;20207;-82
2022/12/23 06:40:03;;;;;;;3.00;2.43;;;8.00;99.90;;;;;;5051492;28;20246;-83
2022/12/23 06:42:28;;;;;;;2.53;2.33;;;8.00;99.90;;;;;;5050744;28;20172;-83
2022/12/23 06:44:54;;;;;;;2.77;2.13;;;8.00;99.90;;;;;;5052843;28;20246;-83
2022/12/23 06:47:19;;;;;;;2.50;2.20;;;8.00;99.90;;;;;;5052157;28;20176;-84
2022/12/23 06:49:45;;;;;;;3.67;2.60;;;8.00;99.90;;;;;;5051345;28;20186;-82
2022/12/23 06:52:10;;;;;;;2.33;2.13;;;7.90;99.90;;;;;;5041116;28;20181;-80
2022/12/23 06:54:36;;;;;;;3.70;2.60;;;8.00;99.90;;;;;;5031468;28;20226;-82
2022/12/23 06:57:01;;;;;;;3.03;2.70;;;8.00;99.90;;;;;;5036939;28;20175;-82
2022/12/23 06:59:28;;;;;;;3.63;2.60;;;8.00;99.90;;;;;;5036557;28;20566;-82
2022/12/23 07:01:54;;;;;;;2.77;2.40;;;8.00;99.90;;;;;;5035051;28;20181;-83
2022/12/23 07:04:19;;;;;;;3.17;2.73;;;8.10;99.90;;;;;;5034512;28;20267;-84
2022/12/23 07:06:45;;;;;;;3.43;2.57;;;8.10;99.90;;;;;;5035086;28;20217;-83
2022/12/23 07:09:10;;;;;;;3.43;2.87;;;8.10;99.90;;;;;;5036262;28;20187;-82
2022/12/23 07:11:36;;;;;;;3.30;2.90;;;8.10;99.90;;;;;;5035429;28;20212;-83
2022/12/23 07:14:01;;;;;;;4.37;2.90;;;8.10;99.90;;;;;;5039628;28;20183;-82
2022/12/23 07:16:27;;;;;;;5.47;4.50;;;8.10;99.90;;;;;;5053721;28;20186;-81
2022/12/23 07:18:53;;;;;;;4.03;3.40;;;8.10;99.90;;;;;;5074554;28;20203;-81
2022/12/23 07:21:18;;;;;;;4.67;3.60;;;8.10;99.90;;;;;;5087348;22;20219;-85
2022/12/23 07:23:44;;;;;;;3.10;2.30;;;8.10;99.90;;;;;;5059195;28;20203;-85
2022/12/23 07:26:09;;;;;;;3.40;2.70;;;8.10;99.90;;;;;;5068655;28;20219;-85
2022/12/23 07:28:35;;;;;;;4.37;3.27;;;8.00;99.90;;;;;;5095480;28;20179;-85
2022/12/23 07:31:03;;;;;;;3.10;2.80;;;8.10;99.90;;;;;;5077315;28;20232;-87
2022/12/23 07:33:29;;;;;;;3.40;2.40;;;8.10;99.90;;;;;;5093798;28;20201;-85
2022/12/23 07:35:58;;;;;;;2.67;2.00;;;8.00;99.90;;;;;;5070429;28;20595;-85
2022/12/23 07:38:24;;;;;;;2.30;2.10;;;8.00;99.90;;;;;;5065012;28;20190;-82
2022/12/23 07:40:49;;;;;;;2.40;2.20;;;8.00;99.90;;;;;;5074253;28;20194;-80
2022/12/23 07:43:15;;;;;;;2.13;1.93;;;8.10;99.90;;;;;;5094197;28;20182;-82
2022/12/23 07:45:40;;;;;;;2.60;1.90;;;8.10;99.90;;;;;;5065776;28;20181;-82
2022/12/23 07:48:07;;;;;;;2.10;1.90;;;8.10;99.90;;;;;;5077935;28;20182;-82
2022/12/23 07:50:33;;;;;;;3.37;2.23;;;8.10;99.90;;;;;;5065553;28;20200;-82
2022/12/23 07:52:58;;;;;;;2.80;2.50;;;8.10;99.90;;;;;;5077430;28;20172;-82
2022/12/23 07:55:24;;;;;;;3.70;2.90;;;8.10;99.90;;;;;;5078198;28;20179;-79
2022/12/23 07:57:51;;;;;;;3.00;2.67;;;8.10;99.90;;;;;;5095947;28;20568;-84
2022/12/23 08:00:18;;;;;;;4.87;3.00;;;8.10;99.90;;;;;;5061806;28;20226;-82
2022/12/23 08:02:44;;;;;;;4.23;3.63;;;8.20;99.90;;;;;;5051515;28;20270;-81
2022/12/23 08:05:10;;;;;;;5.37;4.10;;;8.10;99.90;;;;;;5073293;28;20239;-81
2022/12/23 08:07:35;;;;;;;5.20;3.90;;;8.20;99.90;;;;;;5065002;28;20229;-80
2022/12/23 08:10:02;;;;;;;6.13;4.23;;;8.10;99.90;;;;;;5074573;28;20606;-83
2022/12/23 08:12:27;;;;;;;6.00;4.53;;;8.10;99.90;;;;;;5056502;28;20174;-80
2022/12/23 08:14:53;;;;;;;6.10;4.60;;;8.20;99.90;;;;;;5074523;28;20558;-82
2022/12/23 08:17:22;;;;;;;5.63;4.53;;;8.20;99.90;;;;;;5079206;28;20546;-82
2022/12/23 08:19:48;;;;;;;6.03;4.13;;;8.20;99.90;;;;;;5068052;28;20243;-82
2022/12/23 08:22:14;;;;;;;6.60;4.53;;;8.20;99.90;;;;;;5094291;28;20190;-79
2022/12/23 08:24:39;;;;;;;7.20;4.60;;;8.20;99.90;;;;;;5076529;28;20236;-82
2022/12/23 08:27:05;;;;;;;6.20;4.90;;;8.20;99.90;;;;;;5076800;28;20178;-81
2022/12/23 08:29:30;;;;;;;6.33;4.23;;;8.20;99.90;;;;;;5076591;28;20209;-81
2022/12/23 08:31:56;;;;;;;6.60;4.57;;;8.20;99.90;;;;;;5076566;28;20203;-80
2022/12/23 08:34:22;;;;;;;4.90;4.10;;;8.30;99.90;;;;;;5084307;28;20185;-82
2022/12/23 08:36:48;;;;;;;5.80;4.13;;;8.30;99.90;;;;;;5091285;28;20657;-82
2022/12/23 08:39:13;;;;;;;5.50;4.40;;;8.30;99.90;;;;;;5075990;28;20665;-81
2022/12/23 08:41:42;;;;;;;6.20;4.60;;;8.30;99.90;;;;;;5094360;28;20557;-81
2022/12/23 08:44:08;;;;;;;6.00;4.80;;;8.30;99.90;;;;;;5094155;28;20262;-86
2022/12/23 08:46:34;;;;;;;6.30;5.00;;;8.30;99.90;;;;;;5076220;28;20186;-85
2022/12/23 08:49:00;;;;;;;5.50;4.60;;;8.30;99.90;;;;;;5094409;28;20174;-82
2022/12/23 08:51:27;;;;;;;5.53;4.70;;;8.30;99.90;;;;;;5076165;28;20202;-84
2022/12/23 08:53:57;;;;;;;8.27;5.50;;;8.30;99.90;;;;;;5093527;28;20179;-82
2022/12/23 08:56:25;;;;;;;7.07;4.97;;;8.30;99.90;;;;;;5094360;28;20176;-81
2022/12/23 08:58:52;;;;;;;7.13;4.67;;;8.40;99.90;;;;;;5076094;28;20206;-84
2022/12/23 09:01:20;;;;;;;7.10;5.37;;;8.40;99.90;;;;;;5093872;28;20184;-81
2022/12/23 09:03:46;;;;;;;8.40;5.70;;;8.40;99.90;;;;;;5075417;28;20174;-81
2022/12/23 09:06:16;;;;;;;8.17;5.43;;;8.40;99.90;;;;;;5093736;28;20232;-81
2022/12/23 09:08:42;;;;;;;6.43;4.67;;;8.40;99.90;;;;;;5076491;28;20183;-82
2022/12/23 09:11:09;;;;;;;6.63;4.50;;;8.40;99.90;;;;;;5094097;28;20291;-81
2022/12/23 09:13:35;;;;;;;5.70;4.27;;;8.40;99.90;;;;;;5093348;28;20198;-84
2022/12/23 09:16:00;;;;;;;5.60;4.73;;;8.50;99.90;;;;;;5071505;28;20253;-81
2022/12/23 09:18:26;;;;;;;8.60;3.67;;;8.50;99.90;;;;;;5073893;28;20226;-82
2022/12/23 09:21:00;;;;;;;4.60;3.83;;;8.50;99.90;;;;;;5063566;28;20216;-81
2022/12/23 09:23:26;;;;;;;4.67;3.67;;;8.50;99.90;;;;;;5066742;28;20282;-82
2022/12/23 09:25:52;;;;;;;4.00;3.60;;;8.60;99.90;;;;;;5093769;28;20171;-82
2022/12/23 09:28:18;;;;;;;4.13;3.70;;;8.60;99.90;;;;;;5075678;28;20558;-81
2022/12/23 09:30:44;;;;;;;4.03;3.33;;;8.60;99.90;;;;;;5093645;28;20203;-82
2022/12/23 09:33:09;;;;;;;3.63;2.77;;;8.60;99.90;;;;;;5074759;28;20179;-81
2022/12/23 09:35:35;;;;;;;3.77;3.40;;;8.60;99.90;;;;;;5093312;28;20180;-81
2022/12/23 09:38:00;;;;;;;3.47;2.63;;;8.70;99.90;;;;;;5093516;28;20295;-82
2022/12/23 09:40:29;;;;;;;3.47;2.80;;;8.60;99.90;;;;;;5093268;28;20208;-86
2022/12/23 09:43:22;;;;;;;3.43;2.40;;;8.70;99.90;;;;;;5075380;28;20173;-82
2022/12/23 09:46:07;;;;;;;2.40;2.20;;;8.70;99.90;;;;;;5093208;28;20168;-85
2022/12/23 09:48:39;;;;;;;2.47;2.23;;;8.70;99.90;;;;;;5093276;28;20174;-81
2022/12/23 09:51:05;;;;;;;3.50;2.13;;;8.80;99.90;;;;;;5074774;28;20198;-82
2022/12/23 09:53:57;;;;;;;2.80;2.10;;;8.80;99.90;;;;;;5092704;28;20181;-82
2022/12/23 09:56:38;;;;;;;3.23;2.20;;;8.80;99.90;;;;;;5074943;28;20174;-82
2022/12/23 09:59:25;;;;;;;2.13;1.93;;;8.80;99.90;;;;;;5074924;28;20211;-81
2022/12/23 10:02:27;;;;;;;2.97;1.90;;;8.80;99.90;;;;;;5075185;28;20195;-84
2022/12/23 10:05:14;;;;;;;3.13;2.20;;;8.80;99.90;;;;;;5074955;28;20186;-82
2022/12/23 10:07:48;;;;;;;3.03;2.33;;;8.80;99.90;;;;;;5074799;28;20179;-81
2022/12/23 10:10:25;;;;;;;3.90;2.23;;;8.80;99.90;;;;;;5074889;28;20256;-82
2022/12/23 10:12:53;;;;;;;2.77;2.07;;;8.80;99.90;;;;;;5092742;28;20232;-81
2022/12/23 10:15:46;;;;;;;2.30;2.10;;;8.80;99.90;;;;;;5074653;28;20174;-81
2022/12/23 10:18:26;;;;;;;3.70;2.50;;;8.70;99.90;;;;;;5092698;28;20221;-81
2022/12/23 10:21:01;;;;;;;2.60;2.40;;;8.80;99.90;;;;;;5074289;28;20298;-82
2022/12/23 10:23:38;;;;;;;3.77;2.50;;;8.80;99.90;;;;;;5092336;28;20258;-82
2022/12/23 10:26:16;;;;;;;2.87;2.40;;;8.80;99.90;;;;;;5092806;28;20224;-84
2022/12/23 10:28:41;;;;;;;2.90;2.47;;;8.80;99.90;;;;;;5071268;28;20179;-81
2022/12/23 10:31:16;;;;;;;3.87;2.90;;;8.70;99.90;;;;;;5061840;28;20579;-82
2022/12/23 10:33:51;;;;;;;3.30;2.60;;;8.70;99.90;;;;;;5058150;28;20646;-82
2022/12/23 10:36:21;;;;;;;3.10;2.80;;;8.80;99.90;;;;;;5054870;28;20605;-83
2022/12/23 10:39:01;;;;;;;4.90;2.83;;;8.90;99.90;;;;;;5073370;28;20223;-81
2022/12/23 10:41:36;;;;;;;3.50;3.20;;;8.80;99.90;;;;;;5072279;28;20207;-85
2022/12/23 10:44:30;;;;;;;4.33;3.60;;;8.90;99.90;;;;;;5071625;28;20175;-81
2022/12/23 10:47:16;;;;;;;4.10;3.60;;;8.90;99.90;;;;;;5054677;28;20179;-81
2022/12/23 10:49:57;;;;;;;4.13;3.33;;;8.90;99.90;;;;;;5054424;28;20180;-84
2022/12/23 10:52:30;;;;;;;3.77;3.27;;;8.80;99.90;;;;;;5071967;28;20254;-85
2022/12/23 10:54:56;;;;;;;4.00;3.60;;;8.80;99.90;;;;;;5054873;28;20176;-81
2022/12/23 10:57:23;;;;;;;4.40;4.00;;;8.80;99.90;;;;;;5072356;28;20176;-79
2022/12/23 10:59:49;;;;;;;4.07;3.67;;;8.80;99.90;;;;;;5053989;28;20207;-82
2022/12/23 11:02:33;;;;;;;4.50;3.93;;;8.70;99.90;;;;;;5071470;28;20172;-81
2022/12/23 11:04:58;;;;;;;4.40;4.00;;;8.70;99.90;;;;;;5072351;28;20627;-82
2022/12/23 11:07:27;;;;;;;6.23;3.83;;;8.70;99.90;;;;;;5071998;28;20240;-82
2022/12/23 11:10:02;;;;;;;5.03;3.80;;;8.70;99.90;;;;;;5071855;28;20180;-82
2022/12/23 11:12:43;;;;;;;3.80;3.47;;;8.80;99.90;;;;;;5053717;28;20177;-82
2022/12/23 11:15:27;;;;;;;3.93;3.57;;;8.80;99.90;;;;;;5080594;28;20259;-82
2022/12/23 11:18:10;;;;;;;3.97;3.50;;;8.80;99.90;;;;;;5054529;28;20204;-81
2022/12/23 11:20:36;;;;;;;3.90;3.50;;;8.80;99.90;;;;;;5072237;28;20292;-81
2022/12/23 11:23:04;;;;;;;3.93;3.57;;;8.80;99.90;;;;;;5053638;28;20177;-84
2022/12/23 11:25:40;;;;;;;3.53;3.20;;;8.80;99.90;;;;;;5071444;28;20268;-84
2022/12/23 11:28:13;;;;;;;4.03;3.03;;;8.80;99.90;;;;;;5074073;28;20195;-81
2022/12/23 11:30:53;;;;;;;3.90;3.50;;;8.90;99.90;;;;;;5071682;28;20223;-83
2022/12/23 11:33:29;;;;;;;3.40;3.10;;;8.80;99.90;;;;;;5052931;28;20173;-85
2022/12/23 11:36:02;;;;;;;3.97;3.57;;;8.80;99.90;;;;;;5071432;28;20186;-84
2022/12/23 11:38:27;;;;;;;3.70;3.40;;;8.80;99.90;;;;;;5071127;28;20211;-85
2022/12/23 11:40:53;;;;;;;3.57;3.27;;;8.80;99.90;;;;;;5054099;28;20199;-86
2022/12/23 11:43:20;;;;;;;3.60;3.10;;;8.70;99.90;;;;;;5074482;28;20602;-84
2022/12/23 11:45:45;;;;;;;3.03;2.70;;;8.70;99.90;;;;;;5074929;28;20176;-84
2022/12/23 11:48:28;;;;;;;3.03;2.83;;;8.70;99.90;;;;;;5057049;28;20230;-83
2022/12/23 11:50:59;;;;;;;3.13;2.60;;;8.70;99.90;;;;;;5060389;28;20207;-83
2022/12/23 11:53:26;;;;;;;2.70;2.50;;;8.70;99.90;;;;;;5057292;28;20594;-84
2022/12/23 11:56:11;;;;;;;3.33;2.43;;;8.70;99.90;;;;;;5077470;28;20198;-84
2022/12/23 11:59:04;;;;;;;3.63;2.40;;;8.70;99.90;;;;;;5056732;28;20214;-84
2022/12/23 12:01:31;;;;;;;2.30;2.07;;;8.80;99.90;;;;;;5056602;28;20196;-85
2022/12/23 12:04:00;;;;;;;3.13;2.30;;;8.80;99.90;;;;;;5056218;28;20209;-84
2022/12/23 12:06:27;;;;;;;2.70;2.00;;;8.80;99.90;;;;;;5056620;28;20186;-86
2022/12/23 12:08:56;;;;;;;2.33;2.10;;;8.80;99.90;;;;;;5056410;28;20270;-85
2022/12/23 12:11:36;;;;;;;2.27;2.07;;;8.80;99.90;;;;;;5056377;28;20224;-84
2022/12/23 12:14:04;;;;;;;2.67;2.10;;;8.70;99.90;;;;;;5073874;28;20171;-84
2022/12/23 12:16:30;;;;;;;2.70;2.00;;;8.70;99.90;;;;;;5074219;28;20180;-84
2022/12/23 12:19:13;;;;;;;1.80;1.53;;;8.70;99.90;;;;;;5074336;28;20212;-84
2022/12/23 12:21:39;;;;;;;2.10;1.70;;;8.80;99.90;;;;;;5074172;28;20715;-84
2022/12/23 12:24:15;;;;;;;2.33;1.77;;;8.80;99.90;;;;;;5073614;28;20175;-86
2022/12/23 12:26:49;;;;;;;3.00;1.67;;;8.80;99.90;;;;;;5056351;28;20178;-85
2022/12/23 12:29:36;;;;;;;1.80;1.57;;;8.80;99.90;;;;;;5074359;28;20207;-86
2022/12/23 12:32:03;;;;;;;1.83;1.47;;;8.90;99.90;;;;;;5074056;28;20228;-84
2022/12/23 12:34:52;;;;;;;1.70;1.50;;;8.90;99.90;;;;;;5073513;28;20200;-84
2022/12/23 12:37:58;;;;;;;2.80;1.33;;;8.90;99.90;;;;;;5074055;28;20260;-83
2022/12/23 12:40:41;;;;;;;2.27;1.33;;;8.90;99.90;;;;;;5055746;28;20227;-84
2022/12/23 12:43:32;;;;;;;1.77;1.30;;;8.90;99.90;;;;;;5055244;28;20180;-84
2022/12/23 12:46:16;;;;;;;1.70;1.17;;;8.90;99.90;;;;;;5055911;28;20188;-83
2022/12/23 12:49:09;;;;;;;1.57;1.20;;;8.90;99.90;;;;;;5073806;28;20180;-84
2022/12/23 12:52:26;;;;;;;1.27;1.07;;;8.90;99.90;;;;;;5073335;28;20188;-83
2022/12/23 12:55:06;;;;;;;2.90;1.57;;;8.80;99.90;;;;;;5034492;28;20206;-84
2022/12/23 12:57:34;;;;;;;1.30;1.20;;;8.90;99.90;;;;;;5055447;28;20182;-84
2022/12/23 13:00:01;;;;;;;1.53;1.00;;;8.90;99.90;;;;;;5055748;28;20200;-84
2022/12/23 13:02:48;;;;;;;1.93;1.30;;;8.80;99.90;;;;;;5073018;28;20199;-83
2022/12/23 13:05:38;;;;;;;1.83;1.40;;;8.90;99.90;;;;;;5073339;28;20554;-84
2022/12/23 13:08:26;;;;;;;2.53;1.40;;;8.80;99.90;;;;;;5055418;28;20172;-84
2022/12/23 13:10:54;;;;;;;1.47;1.33;;;8.80;99.90;;;;;;5073363;28;20225;-84
2022/12/23 13:13:31;;;;;;;1.97;1.60;;;8.80;99.90;;;;;;5076841;28;20187;-84
2022/12/23 13:16:18;;;;;;;2.15;1.90;;;8.80;99.90;;;;;;5076052;28;20310;-85
2022/12/23 13:19:11;;;;;;;2.37;1.80;;;8.80;99.90;;;;;;5084660;28;20192;-84
2022/12/23 13:21:45;;;;;;;2.27;2.07;;;8.70;99.90;;;;;;5117782;22;20315;-82
2022/12/23 13:24:30;;;;;;;2.60;2.20;;;8.70;99.90;;;;;;5051410;28;20170;-82
2022/12/23 13:27:01;;;;;;;2.07;1.90;;;8.70;99.90;;;;;;5053592;28;20177;-83
2022/12/23 13:29:45;;;;;;;3.07;1.90;;;8.70;99.90;;;;;;5053225;28;20176;-82
2022/12/23 13:32:35;;;;;;;2.77;1.90;;;8.70;99.90;;;;;;5051597;28;20220;-82
2022/12/23 13:35:22;;;;;;;1.70;1.60;;;8.70;99.90;;;;;;5053121;28;20177;-82
2022/12/23 13:37:59;;;;;;;1.77;1.50;;;8.70;99.90;;;;;;5053034;28;20172;-83
2022/12/23 13:40:52;;;;;;;1.40;1.30;;;8.70;99.90;;;;;;5052023;28;20164;-82
2022/12/23 13:43:22;;;;;;;2.37;1.37;;;8.70;99.90;;;;;;5050907;28;20173;-82
2022/12/23 13:45:52;;;;;;;2.00;1.83;;;8.70;99.90;;;;;;5050808;28;20183;-82